KDAN/DAN METAR and TAF weather

Enter ICAO airport designator
Station Type Date Time Source
KDAN METAR 2021/01/27 12:53 UTC NOAA

KDAN 271253Z AUTO A3005 RMK AO2 SLPNO PWINO FZRANO $


Station Type Date Time Source
KDAN Decoded METAR 2021/01/27 12:53 UTC NOAA

DANVILLE REGIONAL AIRPORT, VA, United States (KDAN) 36-34N 079-20W 175M
Jan 27, 2021 - 07:53 AM EST / 2021.01.27 1253 UTC
Pressure (altimeter): 30.05 in. Hg (1017 hPa)
ob: KDAN 271253Z AUTO A3005 RMK AO2 SLPNO PWINO FZRANO
cycle: 13

Station Type Date Time Source
KDAN TAF 2021/01/27 06:42 UTC NOAA

TAF KDAN 270541Z 2706/2806 VRB03KT 1/4SM FG VV001
FM271400 32004KT P6SM BKN060
FM271700 02005KT P6SM OVC100
FM272000 03005KT P6SM OVC050
FM280200 04008KT 5SM -RA BR OVC022
AMD NOT SKED

Example: see airport list